createdAt,value
2023-06-18T00:01:50.751Z,100307.53
2023-06-18T00:04:54.522Z,100298.63
2023-06-18T00:07:57.188Z,100302.06
2023-06-18T00:10:59.872Z,100306.38
2023-06-18T00:14:02.840Z,100300.28
2023-06-18T00:17:06.003Z,100297.75
2023-06-18T00:20:08.969Z,100302.19
2023-06-18T00:23:11.985Z,100302.22
2023-06-18T00:26:14.689Z,100296.06
2023-06-18T00:29:19.710Z,100303.12
2023-06-18T00:32:22.155Z,100303.12
2023-06-18T00:35:24.985Z,100305.75
2023-06-18T00:38:28.253Z,100303.09
2023-06-18T00:41:32.335Z,100301.28
2023-06-18T00:44:35.091Z,100303.75
2023-06-18T00:47:38.470Z,100301.13
2023-06-18T00:50:42.127Z,100302.84
2023-06-18T00:53:46.794Z,100299.25
2023-06-18T00:56:52.305Z,100301.81
2023-06-18T00:59:56.297Z,100304.31
2023-06-18T01:03:00.545Z,100305.09
2023-06-18T01:06:04.701Z,100306.78
2023-06-18T01:09:08.530Z,100304.16
2023-06-18T01:12:11.404Z,100298.88
2023-06-18T01:15:13.983Z,100296.31
2023-06-18T01:18:17.113Z,100290.25
2023-06-18T01:21:22.466Z,100300.84
2023-06-18T01:24:30.390Z,100307.03
2023-06-18T01:27:37.479Z,100299.19
2023-06-18T01:30:40.946Z,100301.84
2023-06-18T01:33:43.693Z,100300.03
2023-06-18T01:37:06.743Z,100303.56
2023-06-18T01:40:18.427Z,100298.28
2023-06-18T01:43:27.104Z,100306.19
2023-06-18T01:46:30.934Z,100306.19
2023-06-18T01:49:34.362Z,100310.53
2023-06-18T01:52:42.150Z,100309.62
2023-06-18T01:55:47.274Z,100310.53
2023-06-18T01:58:52.000Z,100312.19
2023-06-18T02:01:56.146Z,100321.63
2023-06-18T02:04:59.112Z,100321.50
2023-06-18T02:08:01.781Z,100326.72
2023-06-18T02:11:04.648Z,100320.47
2023-06-18T02:14:07.793Z,100321.25
2023-06-18T02:17:11.605Z,100326.41
2023-06-18T02:20:15.060Z,100327.28
2023-06-18T02:23:20.820Z,100329.09
2023-06-18T02:26:26.653Z,100323.00
2023-06-18T02:29:29.321Z,100319.53
2023-06-18T02:32:35.946Z,100319.59
2023-06-18T02:35:38.454Z,100324.94
2023-06-18T02:38:41.310Z,100320.59
2023-06-18T02:41:46.616Z,100322.37
2023-06-18T02:44:49.819Z,100338.25
2023-06-18T02:47:52.340Z,100337.38
2023-06-18T02:50:55.528Z,100339.13
2023-06-18T02:54:00.433Z,100333.84
2023-06-18T02:57:03.758Z,100345.28
2023-06-18T03:00:13.008Z,100336.53
2023-06-18T03:03:16.222Z,100344.44
2023-06-18T03:06:19.232Z,100352.34
2023-06-18T03:09:22.160Z,100355.87
2023-06-18T03:12:25.609Z,100357.66
2023-06-18T03:15:29.013Z,100369.09
2023-06-18T03:18:31.612Z,100370.88
2023-06-18T03:21:34.581Z,100371.72
2023-06-18T03:24:39.702Z,100371.81
2023-06-18T03:27:43.394Z,100372.75
2023-06-18T03:30:47.067Z,100368.44
2023-06-18T03:33:50.155Z,100366.75
2023-06-18T03:36:52.922Z,100369.47
2023-06-18T03:39:56.049Z,100370.44
2023-06-18T03:42:58.936Z,100369.75
2023-06-18T03:46:01.789Z,100375.09
2023-06-18T03:49:05.991Z,100377.81
2023-06-18T03:52:08.970Z,100381.44
2023-06-18T03:55:11.474Z,100378.91
2023-06-18T03:58:14.797Z,100378.09
2023-06-18T04:01:19.227Z,100375.56
2023-06-18T04:04:22.259Z,100376.53
2023-06-18T04:07:24.751Z,100383.63
2023-06-18T04:10:27.821Z,100381.03
2023-06-18T04:13:30.807Z,100379.41
2023-06-18T04:16:34.042Z,100385.59
2023-06-18T04:19:37.151Z,100379.53
2023-06-18T04:22:40.056Z,100383.09
2023-06-18T04:25:43.918Z,100392.81
2023-06-18T04:28:47.592Z,100384.06
2023-06-18T04:31:50.490Z,100395.53
2023-06-18T04:34:53.956Z,100396.44
2023-06-18T04:37:56.659Z,100394.72
2023-06-18T04:40:59.631Z,100393.03
2023-06-18T04:44:02.129Z,100396.56
2023-06-18T04:47:05.571Z,100392.16
2023-06-18T04:50:08.832Z,100393.03
2023-06-18T04:53:13.551Z,100401.00
2023-06-18T04:56:16.398Z,100394.81
2023-06-18T04:59:22.549Z,100397.44
2023-06-18T05:02:27.192Z,100404.50
2023-06-18T05:05:30.406Z,100408.00
2023-06-18T05:08:33.209Z,100407.94
2023-06-18T05:11:36.237Z,100414.06
2023-06-18T05:14:38.688Z,100411.38
2023-06-18T05:17:41.603Z,100416.63
2023-06-18T05:20:44.901Z,100419.25
2023-06-18T05:23:47.742Z,100414.78
2023-06-18T05:26:50.409Z,100419.13
2023-06-18T05:29:53.490Z,100419.91
2023-06-18T05:32:56.149Z,100426.75
2023-06-18T05:36:00.105Z,100434.44
2023-06-18T05:39:03.725Z,100441.00
2023-06-18T05:42:07.561Z,100440.50
2023-06-18T05:45:11.089Z,100441.19
2023-06-18T05:48:16.004Z,100446.91
2023-06-18T05:51:19.279Z,100444.94
2023-06-18T05:54:22.286Z,100448.03
2023-06-18T05:57:24.817Z,100438.84
2023-06-18T06:00:28.320Z,100447.22
2023-06-18T06:03:31.458Z,100441.63
2023-06-18T06:06:34.763Z,100450.28
2023-06-18T06:09:38.056Z,100447.88
2023-06-18T06:12:41.479Z,100444.66
2023-06-18T06:15:44.374Z,100445.03
2023-06-18T06:18:46.860Z,100451.97
2023-06-18T06:21:49.797Z,100456.34
2023-06-18T06:24:52.472Z,100453.38
2023-06-18T06:27:55.639Z,100453.53
2023-06-18T06:30:58.113Z,100455.09
2023-06-18T06:34:01.591Z,100458.75
2023-06-18T06:37:05.002Z,100459.69
2023-06-18T06:40:09.256Z,100451.19
2023-06-18T06:43:12.259Z,100461.00
2023-06-18T06:46:16.088Z,100460.66
2023-06-18T06:49:18.944Z,100459.44
2023-06-18T06:52:21.698Z,100459.06
2023-06-18T06:55:24.154Z,100451.84
2023-06-18T06:58:27.432Z,100455.88
2023-06-18T07:01:30.266Z,100450.84
2023-06-18T07:04:33.787Z,100449.19
2023-06-18T07:07:39.314Z,100447.41
2023-06-18T07:10:42.322Z,100443.81
2023-06-18T07:13:45.164Z,100457.50
2023-06-18T07:16:49.190Z,100439.06
2023-06-18T07:19:53.762Z,100435.84
2023-06-18T07:22:56.522Z,100432.19
2023-06-18T07:25:59.098Z,100441.31
2023-06-18T07:29:02.082Z,100435.03
2023-06-18T07:32:04.976Z,100427.72
2023-06-18T07:35:08.474Z,100426.56
2023-06-18T07:38:11.036Z,100425.72
2023-06-18T07:41:13.745Z,100428.59
2023-06-18T07:44:16.558Z,100424.69
2023-06-18T07:47:19.741Z,100433.50
2023-06-18T07:50:23.631Z,100425.22
2023-06-18T07:53:26.886Z,100426.22
2023-06-18T07:56:31.460Z,100427.09
2023-06-18T07:59:34.471Z,100429.66
2023-06-18T08:02:37.240Z,100423.53
2023-06-18T08:05:40.139Z,100421.31
2023-06-18T08:08:43.138Z,100429.25
2023-06-18T08:11:46.149Z,100419.97
2023-06-18T08:14:49.146Z,100427.00
2023-06-18T08:17:53.805Z,100425.25
2023-06-18T08:20:56.405Z,100422.63
2023-06-18T08:23:59.388Z,100421.81
2023-06-18T08:27:02.081Z,100424.59
2023-06-18T08:30:06.228Z,100415.06
2023-06-18T08:33:10.940Z,100415.53
2023-06-18T08:36:13.653Z,100417.44
2023-06-18T08:39:16.521Z,100415.59
2023-06-18T08:42:21.921Z,100413.03
2023-06-18T08:45:24.690Z,100422.53
2023-06-18T08:48:32.421Z,100423.75
2023-06-18T08:51:39.268Z,100420.00
2023-06-18T08:54:43.726Z,100415.88
2023-06-18T08:58:00.406Z,100411.94
2023-06-18T09:01:04.422Z,100419.78
2023-06-18T09:04:07.620Z,100420.63
2023-06-18T09:07:10.536Z,100425.34
2023-06-18T09:10:13.655Z,100417.81
2023-06-18T09:13:16.671Z,100417.56
2023-06-18T09:16:20.038Z,100413.50
2023-06-18T09:19:24.504Z,100412.03
2023-06-18T09:22:27.174Z,100417.28
2023-06-18T09:25:34.536Z,100422.59
2023-06-18T09:28:38.005Z,100421.53
2023-06-18T09:31:45.895Z,100414.09
2023-06-18T09:34:48.437Z,100414.56
2023-06-18T09:37:51.380Z,100413.78
2023-06-18T09:40:53.859Z,100407.06
2023-06-18T09:43:57.254Z,100412.91
2023-06-18T09:47:00.188Z,100412.19
2023-06-18T09:50:06.465Z,100411.09
2023-06-18T09:53:17.814Z,100408.56
2023-06-18T09:56:22.105Z,100408.22
2023-06-18T09:59:27.024Z,100411.41
2023-06-18T10:02:29.760Z,100414.56
2023-06-18T10:05:33.185Z,100412.19
2023-06-18T10:08:38.810Z,100419.44
2023-06-18T10:11:43.257Z,100411.19
2023-06-18T10:14:47.250Z,100408.28
2023-06-18T10:17:56.915Z,100404.25
2023-06-18T10:21:06.123Z,100406.91
2023-06-18T10:24:19.854Z,100404.84
2023-06-18T10:27:22.746Z,100401.47
2023-06-18T10:30:26.289Z,100406.16
2023-06-18T10:33:32.301Z,100405.16
2023-06-18T10:36:36.592Z,100406.63
2023-06-18T10:39:39.711Z,100405.00
2023-06-18T10:42:42.716Z,100401.84
2023-06-18T10:46:15.558Z,100404.88
2023-06-18T10:49:21.279Z,100409.16
2023-06-18T10:52:26.263Z,100409.09
2023-06-18T10:55:32.101Z,100411.38
2023-06-18T10:58:38.774Z,100408.81
2023-06-18T11:01:44.190Z,100401.22
2023-06-18T11:04:49.314Z,100400.03
2023-06-18T11:08:27.316Z,100404.62
2023-06-18T11:11:32.280Z,100406.44
2023-06-18T11:14:34.975Z,100402.31
2023-06-18T11:17:39.519Z,100396.13
2023-06-18T11:20:45.634Z,100397.69
2023-06-18T11:23:49.734Z,100394.06
2023-06-18T11:26:52.624Z,100386.81
2023-06-18T11:29:58.427Z,100386.47
2023-06-18T11:33:01.875Z,100378.38
2023-06-18T11:36:13.441Z,100378.00
2023-06-18T11:39:17.162Z,100378.72
2023-06-18T11:42:21.656Z,100375.41
2023-06-18T11:45:24.876Z,100374.34
2023-06-18T11:48:27.799Z,100376.28
2023-06-18T11:51:32.655Z,100381.34
2023-06-18T11:54:40.155Z,100378.28
2023-06-18T11:57:43.624Z,100378.88
2023-06-18T12:00:46.053Z,100372.16
2023-06-18T12:03:49.087Z,100372.16
2023-06-18T12:06:51.539Z,100377.66
2023-06-18T12:09:57.058Z,100364.09
2023-06-18T12:13:11.707Z,100364.09
2023-06-18T12:16:24.647Z,100361.09
2023-06-18T12:19:28.145Z,100359.94
2023-06-18T12:22:31.214Z,100356.34
2023-06-18T12:25:34.033Z,100354.16
2023-06-18T12:28:40.788Z,100341.78
2023-06-18T12:31:44.751Z,100350.22
2023-06-18T12:34:47.771Z,100343.75
2023-06-18T12:37:51.367Z,100343.00
2023-06-18T12:41:01.587Z,100341.94
2023-06-18T12:44:05.504Z,100349.63
2023-06-18T12:47:11.053Z,100330.22
2023-06-18T12:50:21.154Z,100333.97
2023-06-18T12:53:26.611Z,100328.13
2023-06-18T12:56:29.592Z,100331.84
2023-06-18T12:59:32.709Z,100339.44
2023-06-18T13:02:35.499Z,100337.19
2023-06-18T13:05:38.607Z,100324.16
2023-06-18T13:08:41.426Z,100323.00
2023-06-18T13:11:45.397Z,100318.22
2023-06-18T13:14:48.201Z,100319.03
2023-06-18T13:17:51.077Z,100313.28
2023-06-18T13:20:56.249Z,100317.03
2023-06-18T13:23:59.030Z,100322.31
2023-06-18T13:27:01.504Z,100318.87
2023-06-18T13:30:04.610Z,100316.13
2023-06-18T13:33:07.187Z,100319.59
2023-06-18T13:36:11.152Z,100316.84
2023-06-18T13:39:13.893Z,100316.75
2023-06-18T13:42:18.067Z,100307.66
2023-06-18T13:45:22.042Z,100316.34
2023-06-18T13:48:25.441Z,100313.81
2023-06-18T13:51:27.967Z,100308.19
2023-06-18T13:54:31.598Z,100300.91
2023-06-18T13:57:34.262Z,100306.97
2023-06-18T14:00:37.226Z,100307.06
2023-06-18T14:03:41.120Z,100297.87
2023-06-18T14:06:43.727Z,100299.56
2023-06-18T14:09:47.429Z,100301.91
2023-06-18T14:12:51.246Z,100298.63
2023-06-18T14:15:56.733Z,100297.75
2023-06-18T14:18:59.481Z,100294.34
2023-06-18T14:22:02.578Z,100300.19
2023-06-18T14:25:05.647Z,100306.06
2023-06-18T14:28:08.436Z,100301.97
2023-06-18T14:31:12.158Z,100298.28
2023-06-18T14:34:15.711Z,100295.13
2023-06-18T14:37:23.234Z,100300.97
2023-06-18T14:40:25.946Z,100299.38
2023-06-18T14:43:28.672Z,100289.16
2023-06-18T14:46:31.447Z,100291.56
2023-06-18T14:49:35.624Z,100292.62
2023-06-18T14:52:39.149Z,100297.03
2023-06-18T14:55:41.937Z,100295.63
2023-06-18T14:58:44.904Z,100297.09
2023-06-18T15:01:47.666Z,100293.47
2023-06-18T15:04:53.468Z,100300.84
2023-06-18T15:07:56.090Z,100303.78
2023-06-18T15:10:58.935Z,100293.72
2023-06-18T15:14:01.884Z,100297.00
2023-06-18T15:17:06.485Z,100292.06
2023-06-18T15:20:10.451Z,100287.00
2023-06-18T15:23:13.446Z,100280.38
2023-06-18T15:26:16.544Z,100276.06
2023-06-18T15:29:19.318Z,100282.50
2023-06-18T15:32:22.729Z,100279.56
2023-06-18T15:35:25.743Z,100283.66
2023-06-18T15:38:28.567Z,100279.28
2023-06-18T15:41:31.276Z,100275.13
2023-06-18T15:44:33.664Z,100275.41
2023-06-18T15:47:36.531Z,100269.09
2023-06-18T15:50:41.033Z,100271.25
2023-06-18T15:53:43.962Z,100274.25
2023-06-18T15:56:46.716Z,100278.41
2023-06-18T15:59:49.878Z,100275.25
2023-06-18T16:02:52.653Z,100275.59
2023-06-18T16:05:55.680Z,100274.37
2023-06-18T16:08:58.628Z,100270.06
2023-06-18T16:12:01.379Z,100279.06
2023-06-18T16:15:04.993Z,100283.31
2023-06-18T16:18:09.069Z,100281.28
2023-06-18T16:21:11.976Z,100275.66
2023-06-18T16:24:17.625Z,100275.78
2023-06-18T16:27:20.334Z,100278.78
2023-06-18T16:30:23.451Z,100279.88
2023-06-18T16:33:26.128Z,100277.78
2023-06-18T16:36:30.786Z,100290.44
2023-06-18T16:39:37.678Z,100283.56
2023-06-18T16:42:40.532Z,100284.72
2023-06-18T16:45:44.427Z,100296.53
2023-06-18T16:48:47.408Z,100297.75
2023-06-18T16:51:50.109Z,100291.22
2023-06-18T16:54:52.931Z,100299.44
2023-06-18T16:57:55.677Z,100295.28
2023-06-18T17:00:58.915Z,100300.94
2023-06-18T17:04:03.742Z,100304.87
2023-06-18T17:07:06.884Z,100304.16
2023-06-18T17:10:09.887Z,100300.00
2023-06-18T17:13:13.591Z,100301.25
2023-06-18T17:16:17.240Z,100302.53
2023-06-18T17:19:20.871Z,100314.16
2023-06-18T17:22:23.581Z,100311.06
2023-06-18T17:25:26.521Z,100311.37
2023-06-18T17:28:32.352Z,100307.97
2023-06-18T17:31:35.304Z,100310.69
2023-06-18T17:34:37.954Z,100309.25
2023-06-18T17:37:40.754Z,100307.84
2023-06-18T17:40:43.479Z,100308.13
2023-06-18T17:43:46.682Z,100304.66
2023-06-18T17:46:49.201Z,100309.38
2023-06-18T17:49:52.641Z,100313.91
2023-06-18T17:52:55.918Z,100315.16
2023-06-18T17:55:59.409Z,100316.22
2023-06-18T17:59:06.531Z,100313.81
2023-06-18T18:02:09.839Z,100318.47
2023-06-18T18:05:12.679Z,100321.41
2023-06-18T18:08:17.016Z,100321.63
2023-06-18T18:11:21.337Z,100325.47
2023-06-18T18:14:24.389Z,100316.88
2023-06-18T18:17:27.188Z,100328.69
2023-06-18T18:20:31.516Z,100329.00
2023-06-18T18:23:36.124Z,100332.88
2023-06-18T18:26:48.462Z,100335.00
2023-06-18T18:29:52.290Z,100334.41
2023-06-18T18:32:55.065Z,100339.31
2023-06-18T18:35:58.104Z,100343.22
2023-06-18T18:39:00.861Z,100345.34
2023-06-18T18:42:04.101Z,100352.69
2023-06-18T18:45:08.436Z,100352.09
2023-06-18T18:48:11.314Z,100347.94
2023-06-18T18:51:14.528Z,100345.66
2023-06-18T18:54:17.682Z,100360.94
2023-06-18T18:57:21.640Z,100362.91
2023-06-18T19:00:24.617Z,100361.31
2023-06-18T19:03:28.617Z,100367.69
2023-06-18T19:06:32.529Z,100366.97
2023-06-18T19:09:36.489Z,100383.88
2023-06-18T19:12:40.441Z,100384.88
2023-06-18T19:15:44.241Z,100385.91
2023-06-18T19:18:47.350Z,100382.50
2023-06-18T19:21:50.579Z,100388.88
2023-06-18T19:24:55.531Z,100390.78
2023-06-18T19:28:01.435Z,100396.22
2023-06-18T19:31:05.852Z,100393.72
2023-06-18T19:34:08.992Z,100398.25
2023-06-18T19:37:12.107Z,100392.16
2023-06-18T19:40:15.106Z,100398.38
2023-06-18T19:43:18.657Z,100397.53
2023-06-18T19:46:21.969Z,100410.00
2023-06-18T19:49:25.275Z,100402.94
2023-06-18T19:52:28.494Z,100412.75
2023-06-18T19:55:32.242Z,100410.19
2023-06-18T19:58:35.453Z,100412.91
2023-06-18T20:01:38.727Z,100420.88
2023-06-18T20:04:41.861Z,100429.72
2023-06-18T20:07:44.520Z,100423.59
2023-06-18T20:10:47.376Z,100422.72
2023-06-18T20:13:53.363Z,100418.34
2023-06-18T20:16:56.547Z,100418.34
2023-06-18T20:20:01.385Z,100416.56
2023-06-18T20:23:04.684Z,100419.25
2023-06-18T20:26:07.800Z,100423.63
2023-06-18T20:29:10.637Z,100420.19
2023-06-18T20:32:13.834Z,100420.22
2023-06-18T20:35:17.140Z,100422.00
2023-06-18T20:38:19.938Z,100432.63
2023-06-18T20:41:22.953Z,100428.22
2023-06-18T20:44:25.931Z,100432.66
2023-06-18T20:47:29.008Z,100427.37
2023-06-18T20:50:31.766Z,100423.87
2023-06-18T20:53:35.131Z,100422.97
2023-06-18T20:56:37.638Z,100425.62
2023-06-18T20:59:40.495Z,100422.12
2023-06-18T21:02:43.284Z,100420.34
2023-06-18T21:05:46.303Z,100419.47
2023-06-18T21:08:49.081Z,100425.62
2023-06-18T21:11:52.055Z,100429.16
2023-06-18T21:14:54.680Z,100435.34
2023-06-18T21:17:57.527Z,100438.88
2023-06-18T21:21:00.242Z,100431.81
2023-06-18T21:24:03.492Z,100431.81
2023-06-18T21:27:06.658Z,100430.94
2023-06-18T21:30:10.364Z,100432.69
2023-06-18T21:33:12.903Z,100436.19
2023-06-18T21:36:15.783Z,100429.16
2023-06-18T21:39:19.305Z,100433.59
2023-06-18T21:42:22.294Z,100426.53
2023-06-18T21:45:25.017Z,100426.50
2023-06-18T21:48:28.006Z,100422.97
2023-06-18T21:51:30.459Z,100421.22
2023-06-18T21:54:33.359Z,100429.12
2023-06-18T21:57:37.196Z,100430.00
2023-06-18T22:00:40.204Z,100433.53
2023-06-18T22:03:43.276Z,100452.03
2023-06-18T22:06:45.981Z,100441.47
2023-06-18T22:09:48.699Z,100454.66
2023-06-18T22:12:51.175Z,100450.25
2023-06-18T22:15:53.874Z,100453.75
2023-06-18T22:18:59.501Z,100453.75
2023-06-18T22:22:02.187Z,100444.94
2023-06-18T22:25:06.031Z,100451.97
2023-06-18T22:28:08.997Z,100449.25
2023-06-18T22:31:11.699Z,100445.69
2023-06-18T22:34:16.277Z,100443.03
2023-06-18T22:37:22.784Z,100444.81
2023-06-18T22:40:27.242Z,100446.53
2023-06-18T22:43:30.604Z,100447.37
2023-06-18T22:46:34.256Z,100444.72
2023-06-18T22:49:36.852Z,100443.81
2023-06-18T22:52:39.841Z,100443.84
2023-06-18T22:55:42.499Z,100444.72
2023-06-18T22:58:45.277Z,100438.56
2023-06-18T23:01:48.534Z,100441.19
2023-06-18T23:04:52.178Z,100442.97
2023-06-18T23:07:55.029Z,100446.47
2023-06-18T23:10:57.813Z,100443.81
2023-06-18T23:14:00.523Z,100442.00
2023-06-18T23:17:03.801Z,100442.81
2023-06-18T23:20:07.213Z,100440.16
2023-06-18T23:23:10.168Z,100442.75
2023-06-18T23:26:12.912Z,100441.84
2023-06-18T23:29:17.967Z,100439.16
2023-06-18T23:32:20.801Z,100433.87
2023-06-18T23:35:24.205Z,100430.37
2023-06-18T23:38:29.801Z,100433.00
2023-06-18T23:41:32.686Z,100433.00
2023-06-18T23:44:35.212Z,100426.81
2023-06-18T23:47:38.014Z,100431.22
2023-06-18T23:50:41.439Z,100432.97
2023-06-18T23:53:44.148Z,100429.31
2023-06-18T23:56:46.834Z,100436.25
2023-06-18T23:59:50.036Z,100432.69
